Sharpsville, Pennsylvania
Current Conditions -  °F | °C
As of 1:51 PM on Tuesday 27 Jan 2015 (Local Time) from KYNG Reporting Station
Light Snow Light Snow  
Wind Chill:   Ceiling: 1600
Heat Index: 20°   Visibility: 5mi
Dew Point: 13°   Wind: 15mph
Humidity: 74%   Direction: 340°NNW
Pressure: 29.97"   Gusts: NA
Location:  41.26°N, 80.47°W
Report Text: KYNG 271851Z 34013KT 5SM -SN OVC016 M07/M11 A2997 RMK AO2 SLP168 P0000 T10671106
Loading
Personal Weather Stations






























Interactive Weather Map New forecast layout! Learn more

10-Day Weather Forecast

Advertisements
Track Severe Weather on mobile